Boston, Massachusetts
Current Conditions -  °F | °C
As of 12:54 PM on Friday 24 Oct 2014 (Local Time) from KBOS Reporting Station
Overcast Overcast  
Wind Chill: 10°   Ceiling: 1700
Heat Index: 10°   Visibility: 9mi
Dew Point:   Wind: 9mph
Humidity: 86%   Direction: 310°NW
Pressure: 29.69"   Gusts: NA
Location:  42.36°N, 71.06°W
Report Text: KBOS 241654Z 31008KT 9SM FEW010 OVC017 10/08 A2969 RMK AO2 SLP054 T01000078
Loading
Personal Weather Stations






























Interactive Weather Map
Tropical Storm Tracking
New forecast layout! Learn more

10-Day Weather Forecast

Advertisements
Track Severe Weather on mobile